Time;durP1;ratioP1;P1;durP2;ratioP2;P2;SDS_P1;SDS_P2;PMS_P1;PMS_P2;Temp;Humidity;BMP_temperature;BMP_pressure;BME280_temperature;BME280_humidity;BME280_pressure;Samples;Min_cycle;Max_cycle;Signal;HPM_P1;HPM_P2
2022/06/15 00:01:29;;;;;;;2.75;1.25;;;20.80;69.10;;;;;;4994964;28;20074;-66
2022/06/15 00:03:56;;;;;;;2.72;0.88;;;20.90;69.00;;;;;;4994913;28;20576;-66
2022/06/15 00:06:28;;;;;;;3.10;1.35;;;20.90;69.30;;;;;;4995004;28;20135;-66
2022/06/15 00:08:57;;;;;;;2.90;1.42;;;21.00;69.30;;;;;;4994923;28;20049;-66
2022/06/15 00:11:29;;;;;;;4.30;1.50;;;21.00;69.50;;;;;;4994693;28;20622;-66
2022/06/15 00:13:58;;;;;;;1.15;0.98;;;21.00;69.20;;;;;;4994536;28;20121;-66
2022/06/15 00:16:25;;;;;;;2.10;0.95;;;21.20;69.00;;;;;;4994458;28;20133;-66
2022/06/15 00:18:52;;;;;;;3.58;1.50;;;21.20;68.70;;;;;;4994320;28;20172;-66
2022/06/15 00:21:19;;;;;;;1.23;0.90;;;21.20;70.10;;;;;;4994750;28;20422;-66
2022/06/15 00:23:46;;;;;;;2.25;1.20;;;20.70;71.10;;;;;;4994562;28;20053;-66
2022/06/15 00:26:14;;;;;;;3.28;1.00;;;20.50;70.60;;;;;;4994500;28;20045;-66
2022/06/15 00:28:40;;;;;;;2.70;1.20;;;20.20;71.00;;;;;;4994397;28;20053;-66
2022/06/15 00:31:06;;;;;;;1.52;1.00;;;20.10;74.00;;;;;;4994333;28;20394;-66
2022/06/15 00:33:33;;;;;;;4.82;1.15;;;20.00;74.40;;;;;;4994423;28;20064;-66
2022/06/15 00:36:07;;;;;;;4.85;1.05;;;20.00;74.20;;;;;;4994250;28;20061;-66
2022/06/15 00:38:36;;;;;;;1.98;1.08;;;20.00;74.60;;;;;;4994159;28;20675;-66
2022/06/15 00:41:03;;;;;;;3.13;1.17;;;20.10;74.10;;;;;;4993948;28;20398;-66
2022/06/15 00:43:32;;;;;;;1.88;1.00;;;20.20;73.10;;;;;;4993939;28;20154;-66
2022/06/15 00:45:59;;;;;;;3.20;1.60;;;20.20;73.60;;;;;;4994217;28;20056;-66
2022/06/15 00:48:26;;;;;;;5.18;1.25;;;20.20;75.20;;;;;;4994252;28;20125;-66
2022/06/15 00:50:52;;;;;;;3.00;1.25;;;20.30;75.40;;;;;;4993998;28;20124;-66
2022/06/15 00:53:17;;;;;;;5.50;1.30;;;20.30;75.30;;;;;;4993653;28;20491;-66
2022/06/15 00:55:44;;;;;;;2.00;1.10;;;20.30;75.40;;;;;;4993741;28;20045;-66
2022/06/15 00:58:10;;;;;;;3.35;1.40;;;20.30;75.50;;;;;;4993429;28;20046;-66
2022/06/15 01:00:36;;;;;;;2.60;1.35;;;20.30;75.30;;;;;;4993915;28;20516;-66
2022/06/15 01:03:02;;;;;;;2.75;1.40;;;20.30;75.40;;;;;;4994022;28;20133;-66
2022/06/15 01:05:39;;;;;;;2.13;1.00;;;20.20;75.40;;;;;;4993990;28;20065;-66
2022/06/15 01:08:33;;;;;;;5.72;1.17;;;20.20;75.40;;;;;;4993943;28;20058;-66
2022/06/15 01:11:20;;;;;;;3.45;1.10;;;20.30;75.10;;;;;;4990743;28;20524;-66
2022/06/15 01:14:19;;;;;;;3.30;1.40;;;20.30;75.10;;;;;;4993865;28;20070;-66
2022/06/15 01:17:09;;;;;;;3.95;1.65;;;20.40;74.90;;;;;;4993654;28;20046;-66
2022/06/15 01:19:53;;;;;;;21.50;1.35;;;20.40;74.90;;;;;;4993606;28;20077;-66
2022/06/15 01:22:54;;;;;;;2.35;1.35;;;20.30;75.20;;;;;;4993551;28;20042;-67
2022/06/15 01:25:50;;;;;;;4.88;1.88;;;20.20;77.40;;;;;;4993531;28;20042;-66
2022/06/15 01:28:45;;;;;;;4.72;1.88;;;20.20;78.30;;;;;;4993749;28;20513;-66
2022/06/15 01:31:30;;;;;;;3.88;1.35;;;20.10;78.10;;;;;;4980570;28;20053;-66
2022/06/15 01:34:21;;;;;;;2.90;1.10;;;20.20;78.40;;;;;;4993450;28;20100;-66
2022/06/15 01:36:47;;;;;;;3.97;1.13;;;20.20;79.00;;;;;;4993200;28;20516;-66
2022/06/15 01:39:30;;;;;;;2.72;1.40;;;20.30;77.00;;;;;;4993300;28;20046;-66
2022/06/15 01:42:14;;;;;;;3.38;1.50;;;20.30;74.90;;;;;;4993320;28;20505;-66
2022/06/15 01:44:48;;;;;;;6.38;1.50;;;20.40;75.00;;;;;;4993315;28;20066;-67
2022/06/15 01:47:20;;;;;;;5.88;1.60;;;20.40;74.90;;;;;;4993137;28;20046;-66
2022/06/15 01:49:50;;;;;;;4.80;1.23;;;20.40;75.10;;;;;;4993118;28;20046;-66
2022/06/15 01:52:20;;;;;;;5.75;1.60;;;20.30;77.40;;;;;;4993384;28;20046;-66
2022/06/15 01:55:00;;;;;;;5.20;1.55;;;20.10;79.20;;;;;;4993455;28;20152;-66
2022/06/15 01:57:28;;;;;;;4.60;1.35;;;20.10;78.90;;;;;;4993082;28;20133;-66
2022/06/15 02:00:05;;;;;;;5.10;1.52;;;20.20;78.60;;;;;;4993204;28;20046;-66
2022/06/15 02:03:03;;;;;;;3.97;1.70;;;20.10;78.50;;;;;;4993327;28;20050;-66
2022/06/15 02:05:32;;;;;;;5.60;1.52;;;20.10;78.10;;;;;;4993343;28;20120;-66
2022/06/15 02:08:07;;;;;;;3.95;1.52;;;20.10;78.60;;;;;;4993901;28;20057;-66
2022/06/15 02:10:46;;;;;;;3.60;1.60;;;20.00;79.00;;;;;;4996866;28;20053;-66
2022/06/15 02:13:35;;;;;;;3.33;1.30;;;19.70;79.80;;;;;;4997028;28;20038;-66
2022/06/15 02:16:06;;;;;;;2.05;1.40;;;19.40;88.70;;;;;;4996926;28;20034;-66
2022/06/15 02:18:35;;;;;;;1.83;1.15;;;19.30;81.30;;;;;;4996651;28;20124;-66
2022/06/15 02:21:05;;;;;;;9.52;1.50;;;19.10;81.80;;;;;;4996549;28;20141;-66
2022/06/15 02:23:33;;;;;;;6.18;1.38;;;19.40;80.60;;;;;;4996596;28;20065;-66
2022/06/15 02:26:01;;;;;;;4.05;1.30;;;19.90;80.40;;;;;;4996541;28;20069;-66
2022/06/15 02:28:32;;;;;;;5.05;1.48;;;20.00;80.00;;;;;;4996548;28;20084;-66
2022/06/15 02:30:58;;;;;;;2.75;1.48;;;20.20;78.70;;;;;;4996512;28;20130;-66
2022/06/15 02:33:27;;;;;;;6.63;1.45;;;20.10;78.80;;;;;;4996508;28;20129;-66
2022/06/15 02:35:54;;;;;;;2.40;1.40;;;20.00;78.60;;;;;;4996508;28;20522;-66
2022/06/15 02:38:21;;;;;;;3.08;1.40;;;20.20;77.70;;;;;;4996688;28;20037;-66
2022/06/15 02:40:47;;;;;;;6.45;1.38;;;20.20;78.20;;;;;;4996590;28;20061;-66
2022/06/15 02:43:15;;;;;;;5.80;1.60;;;20.20;78.60;;;;;;4996681;28;20505;-66
2022/06/15 02:45:41;;;;;;;2.58;1.27;;;20.10;79.60;;;;;;4993753;28;20046;-66
2022/06/15 02:48:11;;;;;;;4.43;1.58;;;20.10;80.30;;;;;;4993930;28;20509;-66
2022/06/15 02:51:03;;;;;;;4.53;1.10;;;20.10;80.90;;;;;;4993241;28;20137;-66
2022/06/15 02:53:31;;;;;;;2.95;1.35;;;20.20;79.50;;;;;;4984286;28;20038;-66
2022/06/15 02:56:00;;;;;;;2.72;1.33;;;20.40;79.00;;;;;;4994376;28;20100;-66
2022/06/15 02:58:36;;;;;;;3.05;1.42;;;20.40;78.20;;;;;;4994198;28;20045;-66
2022/06/15 03:01:05;;;;;;;2.90;1.48;;;20.20;79.20;;;;;;4995569;28;20054;-66
2022/06/15 03:03:34;;;;;;;4.85;1.77;;;19.70;81.30;;;;;;4994264;28;20035;-66
2022/06/15 03:06:01;;;;;;;4.88;1.60;;;19.60;82.20;;;;;;4993610;28;20050;-66
2022/06/15 03:08:28;;;;;;;6.13;1.40;;;19.70;81.40;;;;;;4994157;28;20085;-66
2022/06/15 03:10:55;;;;;;;7.05;1.30;;;19.90;78.90;;;;;;4993807;28;20109;-66
2022/06/15 03:13:23;;;;;;;2.33;1.50;;;20.30;77.70;;;;;;4993737;28;20078;-66
2022/06/15 03:15:58;;;;;;;2.53;1.40;;;20.50;76.20;;;;;;4976792;28;20058;-66
2022/06/15 03:18:27;;;;;;;7.28;1.27;;;20.70;75.60;;;;;;4994039;28;20046;-66
2022/06/15 03:21:02;;;;;;;3.70;1.58;;;20.70;75.80;;;;;;4976525;28;20453;-66
2022/06/15 03:23:31;;;;;;;3.60;1.40;;;20.70;76.60;;;;;;4995930;28;20046;-66
2022/06/15 03:26:03;;;;;;;4.18;1.42;;;20.70;77.20;;;;;;4994094;28;20044;-66
2022/06/15 03:28:31;;;;;;;4.55;1.38;;;20.40;78.50;;;;;;4993964;28;20086;-66
2022/06/15 03:30:57;;;;;;;2.72;1.38;;;20.30;79.50;;;;;;4992927;28;20050;-66
2022/06/15 03:33:23;;;;;;;4.03;1.65;;;20.20;79.70;;;;;;4993778;28;20104;-66
2022/06/15 03:35:49;;;;;;;3.88;1.88;;;20.00;80.80;;;;;;4993462;28;20581;-66
2022/06/15 03:38:15;;;;;;;8.75;1.88;;;19.70;82.00;;;;;;4995237;28;20529;-66
2022/06/15 03:40:43;;;;;;;2.72;1.30;;;19.40;82.40;;;;;;4995312;28;20042;-66
2022/06/15 03:43:10;;;;;;;7.97;1.77;;;19.40;83.20;;;;;;4995113;28;20144;-66
2022/06/15 03:45:37;;;;;;;5.50;1.85;;;19.50;82.80;;;;;;4977657;28;20490;-66
2022/06/15 03:48:03;;;;;;;8.52;2.28;;;19.90;81.60;;;;;;4992688;28;20050;-66
2022/06/15 03:50:31;;;;;;;5.57;1.95;;;20.20;80.90;;;;;;4989836;28;20049;-66
2022/06/15 03:52:58;;;;;;;4.45;1.60;;;20.30;80.80;;;;;;4994705;28;20038;-66
2022/06/15 03:55:25;;;;;;;3.47;1.50;;;20.40;81.10;;;;;;4994831;28;20041;-66
2022/06/15 03:57:51;;;;;;;4.28;1.85;;;20.30;81.20;;;;;;4994878;28;20046;-66
2022/06/15 04:00:20;;;;;;;3.70;1.58;;;20.30;81.70;;;;;;4995130;28;20042;-66
2022/06/15 04:02:46;;;;;;;11.27;2.55;;;20.10;82.80;;;;;;4994099;28;20054;-66
2022/06/15 04:05:17;;;;;;;32.40;4.70;;;19.90;84.20;;;;;;4994961;28;20037;-66
2022/06/15 04:10:28;;;;;;;5.38;1.65;;;19.60;84.50;;;;;;4994701;28;20089;-66
2022/06/15 04:12:53;;;;;;;7.28;1.85;;;19.80;84.10;;;;;;4994724;28;20041;-66
2022/06/15 04:15:19;;;;;;;4.20;1.90;;;19.80;84.10;;;;;;4994649;28;20041;-66
2022/06/15 04:17:45;;;;;;;3.60;1.60;;;19.90;84.70;;;;;;4994680;28;20056;-66
2022/06/15 04:20:32;;;;;;;7.35;1.83;;;19.70;85.50;;;;;;4994532;28;20042;-66
2022/06/15 04:23:02;;;;;;;3.75;2.10;;;19.70;86.70;;;;;;4994463;28;20042;-66
2022/06/15 04:25:37;;;;;;;5.07;1.77;;;19.70;86.20;;;;;;4994586;28;20048;-66
2022/06/15 04:28:05;;;;;;;4.45;1.98;;;19.90;85.90;;;;;;4994543;28;20046;-66
2022/06/15 04:30:31;;;;;;;4.80;1.92;;;19.90;85.90;;;;;;4994290;28;20046;-66
2022/06/15 04:32:57;;;;;;;6.28;2.17;;;20.00;85.30;;;;;;4993931;28;20070;-66
2022/06/15 04:35:23;;;;;;;6.65;2.08;;;20.00;88.20;;;;;;4994257;28;20093;-66
2022/06/15 04:37:49;;;;;;;7.65;2.20;;;19.80;87.50;;;;;;4994449;28;20049;-66
2022/06/15 04:40:15;;;;;;;5.93;2.20;;;19.70;87.90;;;;;;4994369;28;20116;-67
2022/06/15 04:42:42;;;;;;;4.47;2.38;;;19.70;88.00;;;;;;4994337;28;20058;-67
2022/06/15 04:45:12;;;;;;;4.95;1.70;;;19.70;88.20;;;;;;4994208;28;20069;-67
2022/06/15 04:47:38;;;;;;;7.63;1.88;;;19.80;87.80;;;;;;4994119;28;20129;-67
2022/06/15 04:50:06;;;;;;;4.60;1.92;;;19.80;87.90;;;;;;4994088;28;20125;-66
2022/06/15 04:52:33;;;;;;;6.13;1.75;;;19.90;88.10;;;;;;4994303;28;20517;-66
2022/06/15 04:54:59;;;;;;;14.68;1.90;;;19.80;88.40;;;;;;4992855;28;20038;-67
2022/06/15 04:57:24;;;;;;;7.50;2.95;;;19.70;88.60;;;;;;4993467;28;20042;-66
2022/06/15 04:59:50;;;;;;;13.75;2.47;;;19.70;89.10;;;;;;4993723;28;20405;-66
2022/06/15 05:02:19;;;;;;;10.48;2.40;;;19.70;88.30;;;;;;4993750;28;20054;-67
2022/06/15 05:04:45;;;;;;;11.45;2.42;;;19.90;87.70;;;;;;4992843;28;20528;-67
2022/06/15 05:07:11;;;;;;;5.20;1.67;;;20.00;87.50;;;;;;4993511;28;20046;-66
2022/06/15 05:09:37;;;;;;;12.93;2.92;;;20.20;89.10;;;;;;4993694;28;20042;-67
2022/06/15 05:12:03;;;;;;;8.70;2.15;;;20.50;89.40;;;;;;4993764;28;20046;-67
2022/06/15 05:14:29;;;;;;;8.38;1.90;;;20.60;87.20;;;;;;4993674;28;20057;-67
2022/06/15 05:16:54;;;;;;;3.80;1.90;;;20.60;86.40;;;;;;4993880;28;20121;-67
2022/06/15 05:19:20;;;;;;;4.20;1.95;;;20.70;85.40;;;;;;4993946;28;20465;-67
2022/06/15 05:21:46;;;;;;;5.57;1.98;;;20.70;86.20;;;;;;4993693;28;20525;-67
2022/06/15 05:24:12;;;;;;;5.68;1.80;;;20.70;86.70;;;;;;4994065;28;20489;-67
2022/06/15 05:26:39;;;;;;;10.52;2.40;;;20.80;89.10;;;;;;4993604;28;20421;-67
2022/06/15 05:29:05;;;;;;;5.82;1.70;;;20.80;90.40;;;;;;4993376;28;20034;-67
2022/06/15 05:31:32;;;;;;;8.13;2.50;;;20.90;92.20;;;;;;4992005;28;20074;-66
2022/06/15 05:33:58;;;;;;;8.35;2.78;;;20.90;92.10;;;;;;4990352;28;20034;-66
2022/06/15 05:36:34;;;;;;;5.25;1.52;;;20.90;90.50;;;;;;4992144;28;20702;-67
2022/06/15 05:39:05;;;;;;;3.03;1.70;;;21.00;88.30;;;;;;4992968;28;20053;-67
2022/06/15 05:41:31;;;;;;;;;;;21.00;88.70;;;;;;4993917;28;20054;-67
2022/06/15 05:46:42;;;;;;;7.05;2.55;;;21.10;88.50;;;;;;4997496;28;20093;-66
2022/06/15 05:49:09;;;;;;;3.08;1.77;;;21.10;89.30;;;;;;4997105;28;20070;-67
2022/06/15 05:51:34;;;;;;;6.38;1.80;;;21.10;91.20;;;;;;4996555;28;20050;-67
2022/06/15 05:54:00;;;;;;;4.25;2.10;;;21.10;91.70;;;;;;4997248;28;20100;-67
2022/06/15 05:56:27;;;;;;;8.15;2.33;;;21.10;91.50;;;;;;4996153;28;20046;-66
2022/06/15 05:58:53;;;;;;;11.10;2.40;;;20.90;92.30;;;;;;4997288;28;20050;-67
2022/06/15 06:01:24;;;;;;;10.20;2.47;;;21.10;93.40;;;;;;4997226;28;20046;-67
2022/06/15 06:03:51;;;;;;;5.38;2.17;;;21.00;92.70;;;;;;4994186;28;20118;-66
2022/06/15 06:06:17;;;;;;;7.57;2.22;;;21.30;92.20;;;;;;4996498;28;20073;-67
2022/06/15 06:08:43;;;;;;;5.95;1.88;;;21.30;91.50;;;;;;4997023;28;20389;-67
2022/06/15 06:11:09;;;;;;;9.10;1.90;;;21.20;93.00;;;;;;4996983;28;20038;-67
2022/06/15 06:13:35;;;;;;;9.68;2.15;;;21.20;93.50;;;;;;4996532;28;20125;-67
2022/06/15 06:16:01;;;;;;;5.28;1.52;;;21.10;93.70;;;;;;4996953;28;20453;-67
2022/06/15 06:18:27;;;;;;;7.63;1.90;;;21.10;93.90;;;;;;4996842;28;20042;-67
2022/06/15 06:20:53;;;;;;;6.72;1.83;;;21.10;94.00;;;;;;4996809;28;20050;-67
2022/06/15 06:23:19;;;;;;;3.30;1.88;;;21.10;94.30;;;;;;4996866;28;20124;-67
2022/06/15 06:25:50;;;;;;;7.60;2.10;;;21.10;94.40;;;;;;4996831;28;20078;-67
2022/06/15 06:28:27;;;;;;;7.90;2.10;;;21.30;94.90;;;;;;4996576;28;20042;-67
2022/06/15 06:30:57;;;;;;;4.72;1.80;;;21.40;95.50;;;;;;4996714;28;20046;-66
2022/06/15 06:33:24;;;;;;;8.23;1.77;;;21.50;94.50;;;;;;4996838;28;20049;-67
2022/06/15 06:35:50;;;;;;;6.63;1.83;;;21.60;93.10;;;;;;4996622;28;20513;-67
2022/06/15 06:38:16;;;;;;;5.55;1.70;;;21.80;91.70;;;;;;4996642;28;20038;-66
2022/06/15 06:40:42;;;;;;;4.32;1.67;;;21.80;90.00;;;;;;4996518;28;20049;-67
2022/06/15 06:43:08;;;;;;;3.47;1.88;;;21.80;91.40;;;;;;4996500;28;20406;-67
2022/06/15 06:45:33;;;;;;;4.57;1.75;;;21.80;91.90;;;;;;4995877;28;20068;-67
2022/06/15 06:48:00;;;;;;;7.07;2.40;;;22.00;93.70;;;;;;4996460;28;20042;-67
2022/06/15 06:50:27;;;;;;;10.57;2.53;;;21.90;94.50;;;;;;4996285;28;20583;-67
2022/06/15 06:52:53;;;;;;;5.82;2.20;;;21.90;94.30;;;;;;4996261;28;20299;-67
2022/06/15 06:55:24;;;;;;;5.82;2.28;;;21.90;94.20;;;;;;4994872;28;20057;-68
2022/06/15 06:57:57;;;;;;;8.55;1.88;;;21.90;94.20;;;;;;4996471;28;20042;-67
2022/06/15 07:00:23;;;;;;;5.32;1.75;;;21.80;94.70;;;;;;4996242;28;20034;-67
2022/06/15 07:02:49;;;;;;;8.52;2.03;;;21.80;94.30;;;;;;4995945;28;20050;-67
2022/06/15 07:05:16;;;;;;;11.05;2.95;;;21.80;94.30;;;;;;4996175;28;20062;-66
2022/06/15 07:07:41;;;;;;;7.30;2.00;;;21.50;94.40;;;;;;4995938;28;20046;-66
2022/06/15 07:10:08;;;;;;;4.57;1.92;;;21.40;93.80;;;;;;4995465;28;20053;-66
2022/06/15 07:12:36;;;;;;;3.90;1.70;;;21.30;93.40;;;;;;4994980;28;20053;-67
2022/06/15 07:15:03;;;;;;;11.68;2.22;;;21.40;93.40;;;;;;4995918;28;20149;-66
2022/06/15 07:17:29;;;;;;;8.70;2.05;;;21.50;92.00;;;;;;4995740;28;20049;-67
2022/06/15 07:19:55;;;;;;;4.50;2.47;;;21.90;92.10;;;;;;4994759;28;20038;-66
2022/06/15 07:22:22;;;;;;;4.25;1.70;;;22.00;93.00;;;;;;4994956;28;20081;-66
2022/06/15 07:24:48;;;;;;;7.32;2.00;;;22.10;93.80;;;;;;4995765;28;20517;-67
2022/06/15 07:27:15;;;;;;;4.47;1.92;;;22.50;94.80;;;;;;4995716;28;20053;-67
2022/06/15 07:29:43;;;;;;;7.70;2.35;;;22.60;94.00;;;;;;4994254;28;20402;-67
2022/06/15 07:32:09;;;;;;;6.43;2.38;;;22.60;94.70;;;;;;4995845;28;20042;-67
2022/06/15 07:34:35;;;;;;;10.55;2.20;;;22.40;93.70;;;;;;4995658;28;20042;-67
2022/06/15 07:37:01;;;;;;;6.40;2.20;;;22.30;94.30;;;;;;4995718;28;20054;-67
2022/06/15 07:39:28;;;;;;;4.78;2.13;;;22.40;94.00;;;;;;4995708;28;20054;-67
2022/06/15 07:41:55;;;;;;;7.00;2.33;;;22.70;94.00;;;;;;4995562;28;20506;-67
2022/06/15 07:44:23;;;;;;;6.35;2.20;;;22.80;93.40;;;;;;4995445;28;20077;-67
2022/06/15 07:49:53;;;;;;;13.98;2.55;;;23.00;92.30;;;;;;4995454;28;20050;-66
2022/06/15 07:52:19;;;;;;;15.10;2.72;;;23.20;91.50;;;;;;4993050;28;20045;-66
2022/06/15 07:54:44;;;;;;;7.75;2.85;;;23.40;90.80;;;;;;4994814;28;20046;-67
2022/06/15 07:57:10;;;;;;;6.10;2.40;;;23.60;90.70;;;;;;4995146;28;20583;-67
2022/06/15 07:59:36;;;;;;;8.20;2.60;;;;;;;;;;4995033;28;20104;-67
2022/06/15 08:02:02;;;;;;;9.50;3.20;;;24.30;90.70;;;;;;4995113;28;20514;-67
2022/06/15 08:04:28;;;;;;;6.93;2.45;;;24.30;90.90;;;;;;4995020;28;20053;-67
2022/06/15 08:06:54;;;;;;;6.65;3.08;;;24.70;86.00;;;;;;4994631;28;20125;-67
2022/06/15 08:09:20;;;;;;;8.90;2.28;;;25.10;91.70;;;;;;4994935;28;20046;-67
2022/06/15 08:14:34;;;;;;;4.45;2.50;;;25.60;91.40;;;;;;4994855;28;20471;-67
2022/06/15 08:17:01;;;;;;;11.25;2.45;;;25.60;92.50;;;;;;4994898;28;20042;-67
2022/06/15 08:19:30;;;;;;;5.53;2.72;;;25.50;91.90;;;;;;4994843;28;20042;-67
2022/06/15 08:21:56;;;;;;;5.38;2.10;;;25.70;92.00;;;;;;4991792;28;20477;-67
2022/06/15 08:24:24;;;;;;;3.10;1.77;;;25.60;91.30;;;;;;4975261;28;20113;-67
2022/06/15 08:26:50;;;;;;;3.70;1.90;;;25.20;91.00;;;;;;4977863;28;20054;-67
2022/06/15 08:29:16;;;;;;;5.93;1.70;;;25.30;91.30;;;;;;4994613;28;20525;-68
2022/06/15 08:31:43;;;;;;;2.92;1.60;;;25.20;90.80;;;;;;4994500;28;20046;-67
2022/06/15 08:34:09;;;;;;;4.82;2.10;;;25.20;91.00;;;;;;4994442;28;20045;-67
2022/06/15 08:36:35;;;;;;;3.85;2.03;;;25.10;90.70;;;;;;4994322;28;20120;-67
2022/06/15 08:39:01;;;;;;;6.03;2.10;;;25.20;90.50;;;;;;4994544;28;20497;-67
2022/06/15 08:41:36;;;;;;;7.30;2.00;;;25.20;90.10;;;;;;4994333;28;20052;-67
2022/06/15 08:44:20;;;;;;;6.20;2.05;;;25.20;90.50;;;;;;4994365;28;20049;-67
2022/06/15 08:47:28;;;;;;;4.20;2.13;;;25.80;90.10;;;;;;4994254;28;20066;-67
2022/06/15 08:49:59;;;;;;;7.63;2.15;;;26.40;90.60;;;;;;4994291;28;20034;-67
2022/06/15 08:52:42;;;;;;;4.95;1.90;;;26.80;89.20;;;;;;4994321;28;20042;-67
2022/06/15 08:55:38;;;;;;;11.32;2.33;;;26.40;86.80;;;;;;4994183;28;20513;-68
2022/06/15 08:58:23;;;;;;;9.48;2.50;;;26.60;86.30;;;;;;4994126;28;20514;-67
2022/06/15 09:00:54;;;;;;;8.05;2.70;;;26.70;87.40;;;;;;4994093;28;20041;-68
2022/06/15 09:03:57;;;;;;;10.20;2.63;;;26.90;84.80;;;;;;4994178;28;20046;-68
2022/06/15 09:06:49;;;;;;;13.77;2.90;;;27.30;85.60;;;;;;4993916;28;20034;-67
2022/06/15 09:09:45;;;;;;;9.95;2.60;;;27.20;84.80;;;;;;4993901;28;20070;-67
2022/06/15 09:15:17;;;;;;;16.80;3.85;;;27.10;84.30;;;;;;4993895;28;20046;-67
2022/06/15 09:17:46;;;;;;;7.65;3.00;;;27.40;87.40;;;;;;4993235;28;20050;-67
2022/06/15 09:20:27;;;;;;;16.55;3.45;;;27.50;85.80;;;;;;4993839;28;20034;-67
2022/06/15 09:23:27;;;;;;;6.22;3.05;;;27.60;84.50;;;;;;4993662;28;20038;-67
2022/06/15 09:26:06;;;;;;;12.52;3.30;;;27.60;84.80;;;;;;4926972;28;20049;-67
2022/06/15 09:28:39;;;;;;;11.77;4.50;;;27.70;85.10;;;;;;4993479;28;20117;-67
2022/06/15 09:31:26;;;;;;;15.75;4.07;;;27.80;82.60;;;;;;4993516;28;20046;-68
2022/06/15 09:34:00;;;;;;;13.60;3.17;;;27.60;83.00;;;;;;4993494;28;20038;-68
2022/06/15 09:36:38;;;;;;;9.60;3.70;;;27.90;84.10;;;;;;4993480;28;20050;-67
2022/06/15 09:39:05;;;;;;;15.07;3.22;;;27.80;84.00;;;;;;4993477;28;20039;-67
2022/06/15 09:42:06;;;;;;;15.43;3.70;;;27.90;82.40;;;;;;4993575;28;20544;-67
2022/06/15 09:45:06;;;;;;;11.77;3.33;;;28.10;82.20;;;;;;4993552;28;20050;-67
2022/06/15 09:47:45;;;;;;;12.27;3.55;;;28.50;83.50;;;;;;4993406;28;20506;-67
2022/06/15 09:50:24;;;;;;;16.73;3.13;;;28.80;83.30;;;;;;4993458;28;20113;-68
2022/06/15 09:53:09;;;;;;;14.43;3.42;;;28.70;82.50;;;;;;4993612;28;20096;-67
2022/06/15 09:55:48;;;;;;;12.65;3.30;;;28.70;81.80;;;;;;4993441;28;20046;-67
2022/06/15 09:58:18;;;;;;;7.57;2.90;;;29.00;82.30;;;;;;4993524;28;20048;-67
2022/06/15 10:00:47;;;;;;;11.60;2.95;;;29.40;82.70;;;;;;4993516;28;20046;-67
2022/06/15 10:03:28;;;;;;;6.10;3.13;;;30.10;82.50;;;;;;4992131;28;20492;-67
2022/06/15 10:05:57;;;;;;;9.45;3.50;;;30.20;81.60;;;;;;4993364;28;20125;-68
2022/06/15 10:08:23;;;;;;;10.48;3.10;;;29.70;80.70;;;;;;4993425;28;20076;-68
2022/06/15 10:10:59;;;;;;;7.13;2.88;;;29.70;81.00;;;;;;4993459;28;20066;-68
2022/06/15 10:13:26;;;;;;;12.13;2.67;;;29.90;81.10;;;;;;4993285;28;20050;-67
2022/06/15 10:16:03;;;;;;;10.50;3.42;;;30.40;83.50;;;;;;4993400;28;20081;-67
2022/06/15 10:18:37;;;;;;;9.63;3.20;;;29.80;81.50;;;;;;4993236;28;20125;-68
2022/06/15 10:21:15;;;;;;;12.30;3.53;;;29.60;81.50;;;;;;4993172;28;20080;-68
2022/06/15 10:23:47;;;;;;;12.07;3.28;;;29.60;81.50;;;;;;4989731;28;20046;-68
2022/06/15 10:26:47;;;;;;;5.80;2.75;;;30.00;82.70;;;;;;4992811;28;20046;-68
2022/06/15 10:29:16;;;;;;;13.60;4.28;;;29.40;79.70;;;;;;4980214;28;20049;-68
2022/06/15 10:31:59;;;;;;;11.85;3.08;;;29.50;82.20;;;;;;4996756;28;20042;-68
2022/06/15 10:34:38;;;;;;;13.75;2.97;;;30.10;81.40;;;;;;4996823;28;20046;-66
2022/06/15 10:37:25;;;;;;;12.15;3.05;;;30.30;79.80;;;;;;4996844;28;20038;-65
2022/06/15 10:39:54;;;;;;;9.98;2.88;;;30.00;80.20;;;;;;4996661;28;20083;-66
2022/06/15 10:42:24;;;;;;;8.80;2.95;;;30.40;80.40;;;;;;4996453;28;20050;-66
2022/06/15 10:45:08;;;;;;;10.52;3.35;;;30.10;79.30;;;;;;4996503;28;20038;-66
2022/06/15 10:48:00;;;;;;;15.00;2.85;;;29.90;77.20;;;;;;4996449;28;20425;-65
2022/06/15 10:50:49;;;;;;;14.63;3.28;;;29.90;80.80;;;;;;4996506;28;20379;-65
2022/06/15 10:53:27;;;;;;;33.97;3.85;;;29.90;79.60;;;;;;4956059;28;20041;-65
2022/06/15 11:04:52;;;;;;;11.43;3.00;;;31.50;78.70;;;;;;4978271;28;20034;-65
2022/06/15 11:07:23;;;;;;;17.70;6.93;;;31.70;79.40;;;;;;4967945;28;20050;-65
2022/06/15 11:09:59;;;;;;;9.40;3.28;;;31.60;78.30;;;;;;4986406;28;20445;-65
2022/06/15 11:13:01;;;;;;;9.57;3.92;;;31.80;78.10;;;;;;4991005;28;20141;-65
2022/06/15 11:18:37;;;;;;;15.95;6.07;;;31.20;77.20;;;;;;4971723;28;20066;-66
2022/06/15 11:21:23;;;;;;;13.77;3.33;;;31.40;78.30;;;;;;4991186;28;20065;-66
2022/06/15 11:24:05;;;;;;;10.40;2.70;;;31.40;76.30;;;;;;4989905;28;20709;-66
2022/06/15 11:26:57;;;;;;;16.27;3.47;;;31.60;76.70;;;;;;4991797;28;20038;-66
2022/06/15 11:29:42;;;;;;;10.63;2.83;;;32.30;75.20;;;;;;4991377;28;20138;-66
2022/06/15 11:32:35;;;;;;;11.77;3.53;;;32.80;76.40;;;;;;4991506;28;20038;-66
2022/06/15 11:35:12;;;;;;;8.85;2.58;;;33.00;75.50;;;;;;4993282;28;20046;-66
2022/06/15 11:37:58;;;;;;;9.35;2.83;;;32.20;73.50;;;;;;4993501;28;20042;-66
2022/06/15 11:40:43;;;;;;;15.63;3.78;;;31.30;72.60;;;;;;4992267;28;20038;-66
2022/06/15 11:43:20;;;;;;;13.70;3.10;;;30.90;72.70;;;;;;4993943;28;20054;-66
2022/06/15 11:46:09;;;;;;;14.07;3.58;;;31.10;73.30;;;;;;4993790;28;20561;-66
2022/06/15 11:48:54;;;;;;;12.10;3.30;;;31.70;72.40;;;;;;4992980;28;20150;-65
2022/06/15 11:51:42;;;;;;;9.80;2.58;;;31.50;73.20;;;;;;4994114;28;20104;-65
2022/06/15 11:54:21;;;;;;;8.20;2.60;;;31.20;73.70;;;;;;4993261;28;20402;-65
2022/06/15 11:57:07;;;;;;;12.70;3.50;;;30.70;76.80;;;;;;4992303;28;20046;-65
2022/06/15 11:59:52;;;;;;;15.38;3.03;;;30.90;77.60;;;;;;4993044;28;20057;-65
2022/06/15 12:02:36;;;;;;;12.80;2.90;;;31.00;77.10;;;;;;4992311;28;20050;-65
2022/06/15 12:05:23;;;;;;;10.93;3.47;;;31.50;77.50;;;;;;4992259;28;20475;-65
2022/06/15 12:08:22;;;;;;;10.95;3.28;;;31.50;77.00;;;;;;4993816;28;20070;-65
2022/06/15 12:10:57;;;;;;;12.98;3.60;;;31.80;77.40;;;;;;4991691;28;20446;-66
2022/06/15 12:14:18;;;;;;;11.10;3.35;;;31.90;75.10;;;;;;4993226;28;20048;-65
2022/06/15 12:16:57;;;;;;;11.85;3.35;;;31.70;75.00;;;;;;4913734;29;20044;-65
2022/06/15 12:19:46;;;;;;;15.10;3.13;;;31.80;77.30;;;;;;4992968;28;20038;-64
2022/06/15 12:22:21;;;;;;;12.75;2.80;;;32.10;75.80;;;;;;4993131;28;20137;-64
2022/06/15 12:25:26;;;;;;;13.43;2.95;;;32.50;74.70;;;;;;4992055;28;20121;-64
2022/06/15 12:28:01;;;;;;;21.42;3.65;;;32.70;75.40;;;;;;4986960;28;20494;-65
2022/06/15 12:30:40;;;;;;;15.48;3.83;;;32.90;74.10;;;;;;4989144;28;20060;-65
2022/06/15 12:33:13;;;;;;;13.50;2.67;;;32.80;72.70;;;;;;4992653;28;20050;-65
2022/06/15 12:35:58;;;;;;;17.48;3.78;;;32.70;72.90;;;;;;4993243;28;20049;-65
2022/06/15 12:38:53;;;;;;;14.60;3.25;;;32.70;71.70;;;;;;4975075;28;20049;-65
2022/06/15 12:44:28;;;;;;;13.65;3.67;;;32.30;71.30;;;;;;4992782;28;20425;-65
2022/06/15 12:46:55;;;;;;;9.48;3.10;;;32.40;71.90;;;;;;4992388;28;20053;-65
2022/06/15 12:49:38;;;;;;;16.52;3.28;;;32.10;69.50;;;;;;4992283;28;20053;-65
2022/06/15 12:52:32;;;;;;;17.42;3.25;;;32.20;73.40;;;;;;4991092;28;20034;-65
2022/06/15 12:55:36;;;;;;;12.15;2.92;;;32.30;70.60;;;;;;4973981;28;20049;-65
2022/06/15 12:58:17;;;;;;;12.40;3.22;;;32.50;69.30;;;;;;4988859;28;20107;-65
2022/06/15 13:00:48;;;;;;;12.13;3.60;;;32.50;70.70;;;;;;4994003;28;20108;-65
2022/06/15 13:03:27;;;;;;;17.02;3.42;;;32.80;68.50;;;;;;4993870;28;20057;-65
2022/06/15 13:06:47;;;;;;;17.38;4.00;;;32.70;69.50;;;;;;4994071;28;20169;-65
2022/06/15 13:09:18;;;;;;;;;;;32.90;70.20;;;;;;4934160;29;20052;-65
2022/06/15 13:11:51;;;;;;;13.13;3.17;;;32.50;69.00;;;;;;4983851;28;19955;-65
2022/06/15 13:14:23;;;;;;;13.70;3.05;;;32.70;69.40;;;;;;4993976;28;20046;-65
2022/06/15 13:17:01;;;;;;;17.95;3.67;;;33.00;69.30;;;;;;4993947;28;20401;-65
2022/06/15 13:19:33;;;;;;;14.00;3.30;;;33.20;67.90;;;;;;4993805;28;20042;-65
2022/06/15 13:22:23;;;;;;;25.05;4.13;;;33.20;66.40;;;;;;4993614;28;20494;-65
2022/06/15 13:24:49;;;;;;;;;;;33.00;67.00;;;;;;4994279;28;20502;-65
2022/06/15 13:27:26;;;;;;;10.55;2.85;;;33.00;67.70;;;;;;4993749;28;19964;-65
2022/06/15 13:30:21;;;;;;;14.60;3.20;;;32.80;67.60;;;;;;4993693;28;20050;-65
2022/06/15 13:33:04;;;;;;;14.88;3.83;;;32.80;67.70;;;;;;4993694;28;20042;-65
2022/06/15 13:35:41;;;;;;;15.93;3.17;;;32.80;66.90;;;;;;4993219;28;20128;-65
2022/06/15 13:38:23;;;;;;;15.95;3.72;;;33.20;70.00;;;;;;4993584;28;20125;-65
2022/06/15 13:41:06;;;;;;;14.45;3.50;;;33.30;67.80;;;;;;4989692;28;20125;-65
2022/06/15 13:43:48;;;;;;;16.88;3.72;;;33.60;68.90;;;;;;4991509;28;20049;-65
2022/06/15 13:46:37;;;;;;;16.02;3.50;;;33.20;66.70;;;;;;4992387;28;20030;-65
2022/06/15 13:49:26;;;;;;;12.98;3.85;;;33.00;66.10;;;;;;4992907;28;20184;-65